createdAt,value
2023-05-23T00:02:23.995Z,34.55
2023-05-23T00:04:58.368Z,35.20
2023-05-23T00:07:26.419Z,34.42
2023-05-23T00:09:54.352Z,35.28
2023-05-23T00:12:23.072Z,33.53
2023-05-23T00:14:53.486Z,36.28
2023-05-23T00:17:22.114Z,33.83
2023-05-23T00:19:50.085Z,35.45
2023-05-23T00:22:19.424Z,34.90
2023-05-23T00:24:47.469Z,34.13
2023-05-23T00:27:15.426Z,32.70
2023-05-23T00:29:43.453Z,32.80
2023-05-23T00:32:11.351Z,32.80
2023-05-23T00:34:39.293Z,33.45
2023-05-23T00:37:08.152Z,32.78
2023-05-23T00:39:37.515Z,33.67
2023-05-23T00:42:06.416Z,33.05
2023-05-23T00:44:34.400Z,32.42
2023-05-23T00:47:02.515Z,31.00
2023-05-23T00:49:31.217Z,32.13
2023-05-23T00:51:59.447Z,31.60
2023-05-23T00:54:30.828Z,30.85
2023-05-23T00:57:00.580Z,27.65
2023-05-23T00:59:28.706Z,30.65
2023-05-23T01:01:58.433Z,31.25
2023-05-23T01:04:28.428Z,28.52
2023-05-23T01:06:57.017Z,29.45
2023-05-23T01:09:27.203Z,29.40
2023-05-23T01:12:11.861Z,29.58
2023-05-23T01:14:48.257Z,28.83
2023-05-23T01:17:21.206Z,27.67
2023-05-23T01:20:04.944Z,29.15
2023-05-23T01:22:56.256Z,27.13
2023-05-23T01:25:36.419Z,25.98
2023-05-23T01:28:09.246Z,26.60
2023-05-23T01:30:41.860Z,29.15
2023-05-23T01:33:11.758Z,29.35
2023-05-23T01:35:40.862Z,29.80
2023-05-23T01:38:08.952Z,29.70
2023-05-23T01:40:37.894Z,27.63
2023-05-23T01:43:07.564Z,29.40
2023-05-23T01:45:36.220Z,29.88
2023-05-23T01:48:06.166Z,28.70
2023-05-23T01:50:34.539Z,27.60
2023-05-23T01:53:02.621Z,28.95
2023-05-23T01:55:31.289Z,30.60
2023-05-23T01:58:00.733Z,30.30
2023-05-23T02:00:30.071Z,28.98
2023-05-23T02:02:58.657Z,27.77
2023-05-23T02:05:27.339Z,29.20
2023-05-23T02:07:55.302Z,29.33
2023-05-23T02:10:23.373Z,29.85
2023-05-23T02:12:51.351Z,30.58
2023-05-23T02:15:19.301Z,29.45
2023-05-23T02:17:48.977Z,29.08
2023-05-23T02:20:18.900Z,29.35
2023-05-23T02:22:47.459Z,27.33
2023-05-23T02:25:15.792Z,29.63
2023-05-23T02:27:43.812Z,31.52
2023-05-23T02:30:12.684Z,31.40
2023-05-23T02:32:40.604Z,32.30
2023-05-23T02:35:10.882Z,35.60
2023-05-23T02:37:38.842Z,31.23
2023-05-23T02:40:08.514Z,31.95
2023-05-23T02:42:36.494Z,32.00
2023-05-23T02:45:04.827Z,31.23
2023-05-23T02:47:32.894Z,33.10
2023-05-23T02:50:00.924Z,30.15
2023-05-23T02:52:30.304Z,30.25
2023-05-23T02:54:58.272Z,31.13
2023-05-23T02:57:26.185Z,28.42
2023-05-23T02:59:54.167Z,29.05
2023-05-23T03:02:22.797Z,30.35
2023-05-23T03:04:50.901Z,29.85
2023-05-23T03:07:27.660Z,28.70
2023-05-23T03:09:58.427Z,27.80
2023-05-23T03:12:26.321Z,26.27
2023-05-23T03:14:54.238Z,28.48
2023-05-23T03:17:22.186Z,26.00
2023-05-23T03:19:50.106Z,25.40
2023-05-23T03:22:18.076Z,26.55
2023-05-23T03:24:45.991Z,26.27
2023-05-23T03:27:15.383Z,25.63
2023-05-23T03:29:43.289Z,24.48
2023-05-23T03:32:11.292Z,24.50
2023-05-23T03:34:39.315Z,25.70
2023-05-23T03:37:07.269Z,25.42
2023-05-23T03:39:36.378Z,24.58
2023-05-23T03:42:05.789Z,23.92
2023-05-23T03:44:35.115Z,24.77
2023-05-23T03:47:03.079Z,25.95
2023-05-23T03:49:30.988Z,25.52
2023-05-23T03:51:58.879Z,23.83
2023-05-23T03:54:26.752Z,24.63
2023-05-23T03:56:54.634Z,24.60
2023-05-23T03:59:22.535Z,22.00
2023-05-23T04:01:51.859Z,21.75
2023-05-23T04:04:21.007Z,23.48
2023-05-23T04:06:49.046Z,22.33
2023-05-23T04:09:17.206Z,22.63
2023-05-23T04:11:45.339Z,22.20
2023-05-23T04:14:14.218Z,22.38
2023-05-23T04:16:42.638Z,20.70
2023-05-23T04:19:12.356Z,21.60
2023-05-23T04:21:40.292Z,21.23
2023-05-23T04:24:08.326Z,21.48
2023-05-23T04:26:37.331Z,21.15
2023-05-23T04:29:06.458Z,20.92
2023-05-23T04:31:35.326Z,21.73
2023-05-23T04:34:23.335Z,21.90
2023-05-23T04:36:53.882Z,21.65
2023-05-23T04:39:27.479Z,21.13
2023-05-23T04:41:56.726Z,20.67
2023-05-23T04:44:26.768Z,20.00
2023-05-23T04:46:56.621Z,21.13
2023-05-23T04:49:26.917Z,20.33
2023-05-23T04:51:55.010Z,19.30
2023-05-23T04:54:22.981Z,20.17
2023-05-23T04:56:51.374Z,17.98
2023-05-23T04:59:19.345Z,19.50
2023-05-23T05:01:47.332Z,20.88
2023-05-23T05:04:15.793Z,18.55
2023-05-23T05:06:45.179Z,18.08
2023-05-23T05:09:13.246Z,16.25
2023-05-23T05:11:42.890Z,17.17
2023-05-23T05:14:13.159Z,16.08
2023-05-23T05:16:46.010Z,17.20
2023-05-23T05:19:14.150Z,16.40
2023-05-23T05:21:42.304Z,15.85
2023-05-23T05:24:16.728Z,16.00
2023-05-23T05:27:03.242Z,16.38
2023-05-23T05:29:31.422Z,15.80
2023-05-23T05:32:01.731Z,15.10
2023-05-23T05:34:32.266Z,14.88
2023-05-23T05:37:17.029Z,14.90
2023-05-23T05:39:58.781Z,15.20
2023-05-23T05:42:32.876Z,14.97
2023-05-23T05:45:05.100Z,16.13
2023-05-23T05:47:57.552Z,15.32
2023-05-23T05:50:39.691Z,14.88
2023-05-23T05:53:33.277Z,13.93
2023-05-23T05:56:04.365Z,14.50
2023-05-23T05:58:32.444Z,15.23
2023-05-23T06:01:00.735Z,13.77
2023-05-23T06:03:28.901Z,14.25
2023-05-23T06:05:57.387Z,13.98
2023-05-23T06:08:25.541Z,14.02
2023-05-23T06:10:53.734Z,14.68
2023-05-23T06:13:23.171Z,14.05
2023-05-23T06:15:51.354Z,14.25
2023-05-23T06:18:19.648Z,14.00
2023-05-23T06:20:47.644Z,14.40
2023-05-23T06:23:15.740Z,14.13
2023-05-23T06:25:43.978Z,14.20
2023-05-23T06:28:12.017Z,13.82
2023-05-23T06:30:41.870Z,13.98
2023-05-23T06:33:10.307Z,14.38
2023-05-23T06:35:38.542Z,13.27
2023-05-23T06:38:06.586Z,13.63
2023-05-23T06:40:34.618Z,13.05
2023-05-23T06:43:02.745Z,13.60
2023-05-23T06:45:30.896Z,12.90
2023-05-23T06:48:01.416Z,12.90
2023-05-23T06:50:29.819Z,13.50
2023-05-23T06:52:58.047Z,13.25
2023-05-23T06:55:27.022Z,12.43
2023-05-23T06:57:55.222Z,11.93
2023-05-23T07:00:23.310Z,11.48
2023-05-23T07:02:51.397Z,12.13
2023-05-23T07:05:22.268Z,12.25
2023-05-23T07:07:50.454Z,13.05
2023-05-23T07:10:19.765Z,11.98
2023-05-23T07:12:48.176Z,9.95
2023-05-23T07:15:16.305Z,10.70
2023-05-23T07:17:44.645Z,10.27
2023-05-23T07:20:13.063Z,10.40
2023-05-23T07:22:42.410Z,11.52
2023-05-23T07:25:11.048Z,10.65
2023-05-23T07:27:39.369Z,10.40
2023-05-23T07:30:09.750Z,11.50
2023-05-23T07:32:38.090Z,9.85
2023-05-23T07:35:06.769Z,9.23
2023-05-23T07:37:34.777Z,10.05
2023-05-23T07:40:04.645Z,9.60
2023-05-23T07:42:32.745Z,8.30
2023-05-23T07:45:01.141Z,7.78
2023-05-23T07:47:29.147Z,7.05
2023-05-23T07:49:57.177Z,6.28
2023-05-23T07:52:25.156Z,6.88
2023-05-23T07:54:53.413Z,5.72
2023-05-23T07:57:24.410Z,6.03
2023-05-23T07:59:52.968Z,4.82
2023-05-23T08:02:21.327Z,4.97
2023-05-23T08:04:50.077Z,4.32
2023-05-23T08:07:19.576Z,4.18
2023-05-23T08:09:47.851Z,4.10
2023-05-23T08:12:15.913Z,4.35
2023-05-23T08:14:51.463Z,4.90
2023-05-23T08:17:21.567Z,4.88
2023-05-23T08:19:49.659Z,5.32
2023-05-23T08:22:17.676Z,5.70
2023-05-23T08:24:45.833Z,6.43
2023-05-23T08:27:13.845Z,6.57
2023-05-23T08:29:42.957Z,6.60
2023-05-23T08:32:12.592Z,5.85
2023-05-23T08:34:41.769Z,5.75
2023-05-23T08:37:09.874Z,4.80
2023-05-23T08:39:37.952Z,5.93
2023-05-23T08:42:06.674Z,4.80
2023-05-23T08:44:34.733Z,5.00
2023-05-23T08:47:06.406Z,4.70
2023-05-23T08:49:36.624Z,4.28
2023-05-23T08:52:04.927Z,4.25
2023-05-23T08:54:34.076Z,3.78
2023-05-23T08:57:02.924Z,3.70
2023-05-23T08:59:32.744Z,3.97
2023-05-23T09:02:03.655Z,3.40
2023-05-23T09:04:33.022Z,3.65
2023-05-23T09:07:03.961Z,3.35
2023-05-23T09:09:33.979Z,3.47
2023-05-23T09:12:03.374Z,3.50
2023-05-23T09:14:32.165Z,3.95
2023-05-23T09:17:20.134Z,3.28
2023-05-23T09:19:48.766Z,3.63
2023-05-23T09:22:18.143Z,3.45
2023-05-23T09:24:46.116Z,2.67
2023-05-23T09:27:14.348Z,2.83
2023-05-23T09:29:42.399Z,3.13
2023-05-23T09:32:29.229Z,2.75
2023-05-23T09:34:58.680Z,3.00
2023-05-23T09:37:31.146Z,2.65
2023-05-23T09:42:47.663Z,2.85
2023-05-23T09:45:17.324Z,3.00
2023-05-23T09:48:04.173Z,2.60
2023-05-23T09:50:34.125Z,2.67
2023-05-23T09:53:03.824Z,3.05
2023-05-23T09:55:52.764Z,3.33
2023-05-23T09:58:40.174Z,3.20
2023-05-23T10:01:11.813Z,3.30
2023-05-23T10:03:46.841Z,3.35
2023-05-23T10:06:42.942Z,3.17
2023-05-23T10:09:17.401Z,3.83
2023-05-23T10:12:43.316Z,3.72
2023-05-23T10:15:38.212Z,4.63
2023-05-23T10:18:17.759Z,4.25
2023-05-23T10:21:11.336Z,5.03
2023-05-23T10:23:40.913Z,5.35
2023-05-23T10:26:12.403Z,4.63
2023-05-23T10:28:41.689Z,4.28
2023-05-23T10:31:10.085Z,4.47
2023-05-23T10:34:04.072Z,4.55
2023-05-23T10:36:59.897Z,4.30
2023-05-23T10:39:36.648Z,3.47
2023-05-23T10:42:12.486Z,3.60
2023-05-23T10:45:20.699Z,3.22
2023-05-23T10:47:50.274Z,3.63
2023-05-23T10:50:40.065Z,3.95
2023-05-23T10:53:11.338Z,3.50
2023-05-23T10:55:58.373Z,4.15
2023-05-23T10:58:46.573Z,3.80
2023-05-23T11:01:17.986Z,3.58
2023-05-23T11:04:07.449Z,4.05
2023-05-23T11:06:55.204Z,4.30
2023-05-23T11:10:05.280Z,4.60
2023-05-23T11:12:43.898Z,4.13
2023-05-23T11:15:45.111Z,4.07
2023-05-23T11:18:21.756Z,4.07
2023-05-23T11:20:54.311Z,3.85
2023-05-23T11:23:23.886Z,3.97
2023-05-23T11:25:53.937Z,4.53
2023-05-23T11:28:58.924Z,3.95
2023-05-23T11:31:48.688Z,3.92
2023-05-23T11:34:38.901Z,4.05
2023-05-23T11:37:27.584Z,3.80
2023-05-23T11:40:30.617Z,4.57
2023-05-23T11:43:19.833Z,4.22
2023-05-23T11:46:11.217Z,5.97
2023-05-23T11:49:00.910Z,5.97
2023-05-23T11:51:49.336Z,5.43
2023-05-23T11:54:37.712Z,5.43
2023-05-23T11:57:26.400Z,5.75
2023-05-23T12:00:16.056Z,5.32
2023-05-23T12:03:09.337Z,5.40
2023-05-23T12:05:59.681Z,5.70
2023-05-23T12:08:48.778Z,5.30
2023-05-23T12:11:37.318Z,6.00
2023-05-23T12:14:29.667Z,5.80
2023-05-23T12:17:19.129Z,5.03
2023-05-23T12:20:09.072Z,5.13
2023-05-23T12:22:59.848Z,5.60
2023-05-23T12:25:51.941Z,5.38
2023-05-23T12:28:42.340Z,5.68
2023-05-23T12:31:30.787Z,5.32
2023-05-23T12:34:20.954Z,4.70
2023-05-23T12:36:54.949Z,4.85
2023-05-23T12:39:29.734Z,5.05
2023-05-23T12:42:08.214Z,5.40
2023-05-23T12:44:36.324Z,5.82
2023-05-23T12:47:04.872Z,6.45
2023-05-23T12:49:32.863Z,6.10
2023-05-23T12:52:00.846Z,5.72
2023-05-23T12:54:30.471Z,4.95
2023-05-23T12:56:58.535Z,5.95
2023-05-23T12:59:26.617Z,6.45
2023-05-23T13:01:55.104Z,6.43
2023-05-23T13:04:23.253Z,6.53
2023-05-23T13:06:52.888Z,6.78
2023-05-23T13:09:21.027Z,7.53
2023-05-23T13:11:50.666Z,6.60
2023-05-23T13:14:18.914Z,6.43
2023-05-23T13:16:47.209Z,6.75
2023-05-23T13:19:15.287Z,6.82
2023-05-23T13:21:44.258Z,6.43
2023-05-23T13:24:12.326Z,7.30
2023-05-23T13:26:40.340Z,7.13
2023-05-23T13:29:09.911Z,6.25
2023-05-23T13:31:37.994Z,6.63
2023-05-23T13:34:06.049Z,6.32
2023-05-23T13:36:35.857Z,6.57
2023-05-23T13:39:06.949Z,5.22
2023-05-23T13:41:34.953Z,5.07
2023-05-23T13:44:02.984Z,5.05
2023-05-23T13:46:32.417Z,4.38
2023-05-23T13:49:00.462Z,5.22
2023-05-23T13:51:28.463Z,4.57
2023-05-23T13:53:56.841Z,4.00
2023-05-23T13:56:25.464Z,5.25
2023-05-23T13:58:53.579Z,4.68
2023-05-23T14:01:21.641Z,4.60
2023-05-23T14:03:51.069Z,3.55
2023-05-23T14:06:19.211Z,3.75
2023-05-23T14:08:47.471Z,3.53
2023-05-23T14:11:15.546Z,3.75
2023-05-23T14:13:43.663Z,3.35
2023-05-23T14:16:11.632Z,3.22
2023-05-23T14:18:39.783Z,3.28
2023-05-23T14:21:09.281Z,4.40
2023-05-23T14:23:37.454Z,5.13
2023-05-23T14:26:05.925Z,5.88
2023-05-23T14:28:33.877Z,6.28
2023-05-23T14:31:01.995Z,6.95
2023-05-23T14:33:30.086Z,5.70
2023-05-23T14:35:58.128Z,5.88
2023-05-23T14:38:27.459Z,5.88
2023-05-23T14:40:55.951Z,5.95
2023-05-23T14:43:24.121Z,6.35
2023-05-23T14:45:52.283Z,6.63
2023-05-23T14:48:20.601Z,5.07
2023-05-23T14:50:48.736Z,6.45
2023-05-23T14:53:16.909Z,6.90
2023-05-23T14:55:46.438Z,5.90
2023-05-23T14:58:14.526Z,5.90
2023-05-23T15:00:42.845Z,7.18
2023-05-23T15:03:11.585Z,7.13
2023-05-23T15:05:40.143Z,6.82
2023-05-23T15:08:09.844Z,6.93
2023-05-23T15:10:37.906Z,6.68
2023-05-23T15:13:07.254Z,6.63
2023-05-23T15:15:37.550Z,7.18
2023-05-23T15:18:07.988Z,6.22
2023-05-23T15:20:36.260Z,7.18
2023-05-23T15:23:06.141Z,6.07
2023-05-23T15:25:48.886Z,6.60
2023-05-23T15:28:19.518Z,6.85
2023-05-23T15:30:47.647Z,7.57
2023-05-23T15:33:15.920Z,6.35
2023-05-23T15:35:44.323Z,7.22
2023-05-23T15:38:14.383Z,6.85
2023-05-23T15:40:43.577Z,7.85
2023-05-23T15:43:11.722Z,8.10
2023-05-23T15:45:41.153Z,8.15
2023-05-23T15:48:09.245Z,9.00
2023-05-23T15:50:37.383Z,8.75
2023-05-23T15:53:05.860Z,9.52
2023-05-23T15:55:33.974Z,9.48
2023-05-23T15:58:02.126Z,9.23
2023-05-23T16:00:30.147Z,8.82
2023-05-23T16:02:59.636Z,7.50
2023-05-23T16:05:27.742Z,8.90
2023-05-23T16:07:56.159Z,8.50
2023-05-23T16:10:24.733Z,8.13
2023-05-23T16:12:52.882Z,8.50
2023-05-23T16:15:20.966Z,8.10
2023-05-23T16:17:49.075Z,7.38
2023-05-23T16:20:18.812Z,7.20
2023-05-23T16:22:47.054Z,6.97
2023-05-23T16:25:15.138Z,7.78
2023-05-23T16:27:43.199Z,7.20
2023-05-23T16:30:11.873Z,7.55
2023-05-23T16:32:40.225Z,7.68
2023-05-23T16:35:10.247Z,7.93
2023-05-23T16:37:39.605Z,6.97
2023-05-23T16:40:08.858Z,6.65
2023-05-23T16:42:37.916Z,6.82
2023-05-23T16:45:07.064Z,6.40
2023-05-23T16:47:35.324Z,6.38
2023-05-23T16:50:04.945Z,5.93
2023-05-23T16:52:32.943Z,5.93
2023-05-23T16:55:02.321Z,5.57
2023-05-23T16:57:30.305Z,6.38
2023-05-23T16:59:58.409Z,5.80
2023-05-23T17:02:26.577Z,7.80
2023-05-23T17:04:55.672Z,6.43
2023-05-23T17:07:23.811Z,7.93
2023-05-23T17:09:51.784Z,8.02
2023-05-23T17:12:21.248Z,9.18
2023-05-23T17:14:49.998Z,8.25
2023-05-23T17:17:18.095Z,7.45
2023-05-23T17:19:46.375Z,7.85
2023-05-23T17:22:14.528Z,8.32
2023-05-23T17:24:42.679Z,8.02
2023-05-23T17:27:11.031Z,7.82
2023-05-23T17:29:40.403Z,7.22
2023-05-23T17:32:08.755Z,6.65
2023-05-23T17:34:36.859Z,6.68
2023-05-23T17:37:05.125Z,8.15
2023-05-23T17:39:33.087Z,8.82
2023-05-23T17:42:01.286Z,8.32
2023-05-23T17:44:29.532Z,6.97
2023-05-23T17:46:58.930Z,7.07
2023-05-23T17:49:26.969Z,5.85
2023-05-23T17:51:55.092Z,5.55
2023-05-23T17:54:23.352Z,7.72
2023-05-23T17:56:51.567Z,5.30
2023-05-23T17:59:19.622Z,5.70
2023-05-23T18:01:47.676Z,5.28
2023-05-23T18:04:17.169Z,5.25
2023-05-23T18:06:45.247Z,5.75
2023-05-23T18:09:13.812Z,4.78
2023-05-23T18:11:42.795Z,4.18
2023-05-23T18:14:10.980Z,4.75
2023-05-23T18:16:39.165Z,4.35
2023-05-23T18:19:07.337Z,3.97
2023-05-23T18:21:36.826Z,4.97
2023-05-23T18:24:04.972Z,4.40
2023-05-23T18:26:32.880Z,4.40
2023-05-23T18:29:02.041Z,4.50
2023-05-23T18:31:30.157Z,5.28
2023-05-23T18:33:58.396Z,3.83
2023-05-23T18:36:27.070Z,4.18
2023-05-23T18:38:56.531Z,4.70
2023-05-23T18:41:24.682Z,4.43
2023-05-23T18:43:52.741Z,4.85
2023-05-23T18:46:20.913Z,4.90
2023-05-23T18:48:48.951Z,5.43
2023-05-23T18:51:17.008Z,4.70
2023-05-23T18:53:45.050Z,4.95
2023-05-23T18:56:14.465Z,4.18
2023-05-23T18:58:43.478Z,5.18
2023-05-23T19:01:12.191Z,3.78
2023-05-23T19:03:41.335Z,4.10
2023-05-23T19:06:09.571Z,3.70
2023-05-23T19:08:37.650Z,3.42
2023-05-23T19:11:05.966Z,3.95
2023-05-23T19:13:35.495Z,3.50
2023-05-23T19:16:03.668Z,3.63
2023-05-23T19:18:31.697Z,3.40
2023-05-23T19:20:59.675Z,3.45
2023-05-23T19:23:28.129Z,3.40
2023-05-23T19:25:56.198Z,3.30
2023-05-23T19:28:24.331Z,4.10
2023-05-23T19:30:53.880Z,3.35
2023-05-23T19:33:22.856Z,3.25
2023-05-23T19:35:51.600Z,3.20
2023-05-23T19:38:19.577Z,3.88
2023-05-23T19:40:47.966Z,3.75
2023-05-23T19:43:16.158Z,3.53
2023-05-23T19:45:44.387Z,3.70
2023-05-23T19:48:14.098Z,3.95
2023-05-23T19:50:43.579Z,4.72
2023-05-23T19:53:12.030Z,3.42
2023-05-23T19:55:40.177Z,4.32
2023-05-23T19:58:08.221Z,3.50
2023-05-23T20:00:36.318Z,4.57
2023-05-23T20:03:04.912Z,3.63
2023-05-23T20:05:53.086Z,4.07
2023-05-23T20:08:21.301Z,4.20
2023-05-23T20:10:55.093Z,3.92
2023-05-23T20:13:23.053Z,4.05
2023-05-23T20:15:51.124Z,3.67
2023-05-23T20:18:19.423Z,4.03
2023-05-23T20:20:47.393Z,4.05
2023-05-23T20:23:16.884Z,3.45
2023-05-23T20:25:46.065Z,4.10
2023-05-23T20:28:14.052Z,3.75
2023-05-23T20:30:42.502Z,4.13
2023-05-23T20:33:11.269Z,4.05
2023-05-23T20:35:41.735Z,3.55
2023-05-23T20:38:09.983Z,3.60
2023-05-23T20:40:42.631Z,3.72
2023-05-23T20:43:10.917Z,3.42
2023-05-23T20:45:39.144Z,3.30
2023-05-23T20:48:07.433Z,3.28
2023-05-23T20:50:36.608Z,2.85
2023-05-23T20:53:06.336Z,2.75
2023-05-23T20:55:35.782Z,3.10
2023-05-23T20:58:05.216Z,2.90
2023-05-23T21:00:33.196Z,3.05
2023-05-23T21:03:02.343Z,2.92
2023-05-23T21:05:30.632Z,3.58
2023-05-23T21:08:01.143Z,3.17
2023-05-23T21:10:29.158Z,2.72
2023-05-23T21:12:57.202Z,3.58
2023-05-23T21:15:26.655Z,3.70
2023-05-23T21:17:55.241Z,3.30
2023-05-23T21:20:23.425Z,2.58
2023-05-23T21:22:51.736Z,2.85
2023-05-23T21:25:19.916Z,3.10
2023-05-23T21:27:47.912Z,2.50
2023-05-23T21:30:16.095Z,2.58
2023-05-23T21:32:46.391Z,2.78
2023-05-23T21:35:14.455Z,3.03
2023-05-23T21:37:42.533Z,2.90
2023-05-23T21:40:11.670Z,2.50
2023-05-23T21:42:39.699Z,3.20
2023-05-23T21:45:08.887Z,3.28
2023-05-23T21:47:36.996Z,3.40
2023-05-23T21:50:07.458Z,3.47
2023-05-23T21:52:35.689Z,2.90
2023-05-23T21:55:03.779Z,2.50
2023-05-23T21:57:31.744Z,3.25
2023-05-23T21:59:59.887Z,3.33
2023-05-23T22:02:27.953Z,3.47
2023-05-23T22:04:55.842Z,3.90
2023-05-23T22:07:26.013Z,3.97
2023-05-23T22:09:54.578Z,3.33
2023-05-23T22:12:22.861Z,3.20
2023-05-23T22:14:50.857Z,3.88
2023-05-23T22:17:21.834Z,3.10
2023-05-23T22:19:51.816Z,3.58
2023-05-23T22:22:20.034Z,3.67
2023-05-23T22:24:49.351Z,4.00
2023-05-23T22:27:17.294Z,3.63
2023-05-23T22:29:45.226Z,3.85
2023-05-23T22:32:13.427Z,4.13
2023-05-23T22:34:41.339Z,4.40
2023-05-23T22:37:09.638Z,3.72
2023-05-23T22:39:37.733Z,4.22
2023-05-23T22:42:07.596Z,3.67
2023-05-23T22:44:35.639Z,4.88
2023-05-23T22:47:04.698Z,4.25
2023-05-23T22:49:32.625Z,4.55
2023-05-23T22:52:00.550Z,4.40
2023-05-23T22:54:28.487Z,5.18
2023-05-23T22:56:56.720Z,4.82
2023-05-23T22:59:26.079Z,4.55
2023-05-23T23:01:54.046Z,5.22
2023-05-23T23:04:23.556Z,4.65
2023-05-23T23:06:53.572Z,4.40
2023-05-23T23:09:21.568Z,4.57
2023-05-23T23:11:49.596Z,4.25
2023-05-23T23:14:17.540Z,4.40
2023-05-23T23:16:49.722Z,4.10
2023-05-23T23:19:17.858Z,3.75
2023-05-23T23:21:45.965Z,3.75
2023-05-23T23:24:14.480Z,3.70
2023-05-23T23:26:42.401Z,3.65
2023-05-23T23:29:10.488Z,3.65
2023-05-23T23:31:38.479Z,2.67
2023-05-23T23:34:07.852Z,4.18
2023-05-23T23:36:39.574Z,3.05
2023-05-23T23:39:07.479Z,3.10
2023-05-23T23:41:35.464Z,2.97
2023-05-23T23:44:03.394Z,3.55
2023-05-23T23:46:31.461Z,3.63
2023-05-23T23:48:59.467Z,2.90
2023-05-23T23:51:28.752Z,2.70
2023-05-23T23:53:56.871Z,2.90
2023-05-23T23:56:26.065Z,3.03
2023-05-23T23:58:53.994Z,3.38
